sensor_id;sensor_type;location;lat;lon;timestamp;temperature;humidity
85706;DHT22;76142;52.376;9.712;2024-03-23T00:53:02;8.00;99.90
85706;DHT22;76142;52.376;9.712;2024-03-23T00:55:27;7.90;99.90
85706;DHT22;76142;52.376;9.712;2024-03-23T00:57:53;7.90;99.90
85706;DHT22;76142;52.376;9.712;2024-03-23T01:00:18;7.90;99.90
85706;DHT22;76142;52.376;9.712;2024-03-23T01:02:44;7.90;99.90
85706;DHT22;76142;52.376;9.712;2024-03-23T01:05:10;7.90;99.90
85706;DHT22;76142;52.376;9.712;2024-03-23T01:07:36;7.90;99.90
85706;DHT22;76142;52.376;9.712;2024-03-23T01:10:02;7.90;99.90
85706;DHT22;76142;52.376;9.712;2024-03-23T01:12:27;7.90;99.90
85706;DHT22;76142;52.376;9.712;2024-03-23T01:14:53;7.80;99.90
85706;DHT22;76142;52.376;9.712;2024-03-23T01:17:19;7.70;99.90
85706;DHT22;76142;52.376;9.712;2024-03-23T01:19:44;7.80;99.90
85706;DHT22;76142;52.376;9.712;2024-03-23T01:22:10;7.70;99.90
85706;DHT22;76142;52.376;9.712;2024-03-23T01:24:36;7.70;99.90
85706;DHT22;76142;52.376;9.712;2024-03-23T01:27:02;7.70;99.90
85706;DHT22;76142;52.376;9.712;2024-03-23T01:29:28;7.80;99.90
85706;DHT22;76142;52.376;9.712;2024-03-23T01:31:54;7.70;99.90
85706;DHT22;76142;52.376;9.712;2024-03-23T01:34:20;7.70;99.90
85706;DHT22;76142;52.376;9.712;2024-03-23T01:36:46;7.60;99.90
85706;DHT22;76142;52.376;9.712;2024-03-23T01:39:13;7.60;99.90
85706;DHT22;76142;52.376;9.712;2024-03-23T01:41:39;7.70;99.90
85706;DHT22;76142;52.376;9.712;2024-03-23T01:44:08;7.60;99.90
85706;DHT22;76142;52.376;9.712;2024-03-23T01:46:37;7.50;99.90
85706;DHT22;76142;52.376;9.712;2024-03-23T01:49:06;7.50;99.90
85706;DHT22;76142;52.376;9.712;2024-03-23T01:51:33;7.50;99.90
85706;DHT22;76142;52.376;9.712;2024-03-23T01:54:00;7.50;99.90
85706;DHT22;76142;52.376;9.712;2024-03-23T01:56:31;7.50;99.90
85706;DHT22;76142;52.376;9.712;2024-03-23T01:58:59;7.50;99.90
85706;DHT22;76142;52.376;9.712;2024-03-23T02:01:24;7.50;99.90
85706;DHT22;76142;52.376;9.712;2024-03-23T02:03:50;7.50;99.90
85706;DHT22;76142;52.376;9.712;2024-03-23T02:06:16;7.40;99.90
85706;DHT22;76142;52.376;9.712;2024-03-23T02:08:43;7.50;99.90
85706;DHT22;76142;52.376;9.712;2024-03-23T02:11:08;7.50;99.90
85706;DHT22;76142;52.376;9.712;2024-03-23T02:13:34;7.40;99.90
85706;DHT22;76142;52.376;9.712;2024-03-23T02:16:00;7.30;99.90
85706;DHT22;76142;52.376;9.712;2024-03-23T02:18:25;7.30;99.90
85706;DHT22;76142;52.376;9.712;2024-03-23T02:20:51;7.40;99.90
85706;DHT22;76142;52.376;9.712;2024-03-23T02:23:17;7.30;99.90
85706;DHT22;76142;52.376;9.712;2024-03-23T02:25:43;7.40;99.90
85706;DHT22;76142;52.376;9.712;2024-03-23T02:28:09;7.40;99.90
85706;DHT22;76142;52.376;9.712;2024-03-23T02:30:35;7.40;99.90
85706;DHT22;76142;52.376;9.712;2024-03-23T02:33:01;7.40;99.90
85706;DHT22;76142;52.376;9.712;2024-03-23T02:35:26;7.40;99.90
85706;DHT22;76142;52.376;9.712;2024-03-23T02:37:52;7.30;99.90
85706;DHT22;76142;52.376;9.712;2024-03-23T02:40:20;7.40;99.90
85706;DHT22;76142;52.376;9.712;2024-03-23T02:42:46;7.40;99.90
85706;DHT22;76142;52.376;9.712;2024-03-23T02:45:11;7.40;99.90
85706;DHT22;76142;52.376;9.712;2024-03-23T02:47:37;7.40;99.90
85706;DHT22;76142;52.376;9.712;2024-03-23T02:50:03;7.40;99.90
85706;DHT22;76142;52.376;9.712;2024-03-23T02:52:29;7.30;99.90
85706;DHT22;76142;52.376;9.712;2024-03-23T02:54:55;7.40;99.90
85706;DHT22;76142;52.376;9.712;2024-03-23T02:57:21;7.40;99.90
85706;DHT22;76142;52.376;9.712;2024-03-23T02:59:46;7.40;99.90
85706;DHT22;76142;52.376;9.712;2024-03-23T03:02:13;7.40;99.90
85706;DHT22;76142;52.376;9.712;2024-03-23T03:04:39;7.40;99.90
85706;DHT22;76142;52.376;9.712;2024-03-23T03:07:05;7.40;99.90
85706;DHT22;76142;52.376;9.712;2024-03-23T03:09:31;7.30;99.90
85706;DHT22;76142;52.376;9.712;2024-03-23T03:11:57;7.30;99.90
85706;DHT22;76142;52.376;9.712;2024-03-23T03:14:22;7.30;99.90
85706;DHT22;76142;52.376;9.712;2024-03-23T03:16:48;7.30;99.90
85706;DHT22;76142;52.376;9.712;2024-03-23T03:19:14;7.30;99.90
85706;DHT22;76142;52.376;9.712;2024-03-23T03:21:39;7.30;99.90
85706;DHT22;76142;52.376;9.712;2024-03-23T03:24:06;7.30;99.90
85706;DHT22;76142;52.376;9.712;2024-03-23T03:26:32;7.30;99.90
85706;DHT22;76142;52.376;9.712;2024-03-23T03:28:57;7.30;99.90
85706;DHT22;76142;52.376;9.712;2024-03-23T03:31:23;7.30;99.90
85706;DHT22;76142;52.376;9.712;2024-03-23T03:33:50;7.30;99.90
85706;DHT22;76142;52.376;9.712;2024-03-23T03:36:16;7.40;99.90
85706;DHT22;76142;52.376;9.712;2024-03-23T03:38:42;7.30;99.90
85706;DHT22;76142;52.376;9.712;2024-03-23T03:41:08;7.30;99.90
85706;DHT22;76142;52.376;9.712;2024-03-23T03:43:33;7.20;99.90
85706;DHT22;76142;52.376;9.712;2024-03-23T03:46:00;7.10;99.90
85706;DHT22;76142;52.376;9.712;2024-03-23T03:48:26;7.00;99.90
85706;DHT22;76142;52.376;9.712;2024-03-23T03:50:52;6.90;99.90
85706;DHT22;76142;52.376;9.712;2024-03-23T03:53:19;6.90;99.90
85706;DHT22;76142;52.376;9.712;2024-03-23T03:55:44;6.80;99.90
85706;DHT22;76142;52.376;9.712;2024-03-23T03:58:10;6.80;99.90
85706;DHT22;76142;52.376;9.712;2024-03-23T04:00:37;6.90;99.90
85706;DHT22;76142;52.376;9.712;2024-03-23T04:03:03;6.90;99.90
85706;DHT22;76142;52.376;9.712;2024-03-23T04:05:29;7.00;99.90
85706;DHT22;76142;52.376;9.712;2024-03-23T04:07:55;7.00;99.90
85706;DHT22;76142;52.376;9.712;2024-03-23T04:10:21;7.00;99.90
85706;DHT22;76142;52.376;9.712;2024-03-23T04:12:47;7.00;99.90
85706;DHT22;76142;52.376;9.712;2024-03-23T04:15:13;6.90;99.90
85706;DHT22;76142;52.376;9.712;2024-03-23T04:17:39;6.90;99.90
85706;DHT22;76142;52.376;9.712;2024-03-23T04:20:05;7.00;99.90
85706;DHT22;76142;52.376;9.712;2024-03-23T04:22:40;7.00;99.90
85706;DHT22;76142;52.376;9.712;2024-03-23T04:25:05;7.00;99.90
85706;DHT22;76142;52.376;9.712;2024-03-23T04:27:36;6.90;99.90
85706;DHT22;76142;52.376;9.712;2024-03-23T04:30:03;6.90;99.90
85706;DHT22;76142;52.376;9.712;2024-03-23T04:32:30;6.80;99.90
85706;DHT22;76142;52.376;9.712;2024-03-23T04:34:56;6.90;99.90
85706;DHT22;76142;52.376;9.712;2024-03-23T04:37:22;6.90;99.90
85706;DHT22;76142;52.376;9.712;2024-03-23T04:39:48;6.80;99.90
85706;DHT22;76142;52.376;9.712;2024-03-23T04:42:17;6.80;99.90
85706;DHT22;76142;52.376;9.712;2024-03-23T04:44:42;6.80;99.90
85706;DHT22;76142;52.376;9.712;2024-03-23T04:47:08;6.80;99.90
85706;DHT22;76142;52.376;9.712;2024-03-23T04:49:34;6.80;99.90
85706;DHT22;76142;52.376;9.712;2024-03-23T04:52:05;6.80;99.90
85706;DHT22;76142;52.376;9.712;2024-03-23T04:54:31;6.80;99.90
85706;DHT22;76142;52.376;9.712;2024-03-23T04:56:58;6.90;99.90
85706;DHT22;76142;52.376;9.712;2024-03-23T04:59:23;6.90;99.90
85706;DHT22;76142;52.376;9.712;2024-03-23T05:01:49;6.90;99.90
85706;DHT22;76142;52.376;9.712;2024-03-23T05:04:14;6.80;99.90
85706;DHT22;76142;52.376;9.712;2024-03-23T05:06:40;6.90;99.90
85706;DHT22;76142;52.376;9.712;2024-03-23T05:09:06;6.80;99.90
85706;DHT22;76142;52.376;9.712;2024-03-23T05:11:33;6.80;99.90
85706;DHT22;76142;52.376;9.712;2024-03-23T05:13:59;6.70;99.90
85706;DHT22;76142;52.376;9.712;2024-03-23T05:16:25;6.70;99.90
85706;DHT22;76142;52.376;9.712;2024-03-23T05:18:51;6.70;99.90
85706;DHT22;76142;52.376;9.712;2024-03-23T05:21:17;6.60;99.90
85706;DHT22;76142;52.376;9.712;2024-03-23T05:23:43;6.60;99.90
85706;DHT22;76142;52.376;9.712;2024-03-23T05:26:09;6.50;99.90
85706;DHT22;76142;52.376;9.712;2024-03-23T05:28:35;6.50;99.90
85706;DHT22;76142;52.376;9.712;2024-03-23T05:31:00;6.60;99.90
85706;DHT22;76142;52.376;9.712;2024-03-23T05:33:26;6.50;99.90
85706;DHT22;76142;52.376;9.712;2024-03-23T05:36:00;6.50;99.90
85706;DHT22;76142;52.376;9.712;2024-03-23T05:38:26;6.60;99.90
85706;DHT22;76142;52.376;9.712;2024-03-23T05:41:02;6.60;99.90
85706;DHT22;76142;52.376;9.712;2024-03-23T05:43:28;6.50;99.90
85706;DHT22;76142;52.376;9.712;2024-03-23T05:45:58;6.50;99.90
85706;DHT22;76142;52.376;9.712;2024-03-23T05:48:24;6.60;99.90
85706;DHT22;76142;52.376;9.712;2024-03-23T05:50:50;6.60;99.90
85706;DHT22;76142;52.376;9.712;2024-03-23T05:53:17;6.60;99.90
85706;DHT22;76142;52.376;9.712;2024-03-23T05:55:43;6.60;99.90
85706;DHT22;76142;52.376;9.712;2024-03-23T05:58:09;6.70;99.90
85706;DHT22;76142;52.376;9.712;2024-03-23T06:00:35;6.70;99.90
85706;DHT22;76142;52.376;9.712;2024-03-23T06:03:01;6.60;99.90
85706;DHT22;76142;52.376;9.712;2024-03-23T06:05:27;6.60;99.90
85706;DHT22;76142;52.376;9.712;2024-03-23T06:07:53;6.70;99.90
85706;DHT22;76142;52.376;9.712;2024-03-23T06:10:18;6.60;99.90
85706;DHT22;76142;52.376;9.712;2024-03-23T06:12:46;6.60;99.90
85706;DHT22;76142;52.376;9.712;2024-03-23T06:15:12;6.70;99.90
85706;DHT22;76142;52.376;9.712;2024-03-23T06:17:38;6.70;99.90
85706;DHT22;76142;52.376;9.712;2024-03-23T06:20:04;6.70;99.90
85706;DHT22;76142;52.376;9.712;2024-03-23T06:22:31;6.70;99.90
85706;DHT22;76142;52.376;9.712;2024-03-23T06:24:57;6.60;99.90
85706;DHT22;76142;52.376;9.712;2024-03-23T06:27:23;6.60;99.90
85706;DHT22;76142;52.376;9.712;2024-03-23T06:29:48;6.60;99.90
85706;DHT22;76142;52.376;9.712;2024-03-23T06:32:14;6.70;99.90
85706;DHT22;76142;52.376;9.712;2024-03-23T06:34:43;6.60;99.90
85706;DHT22;76142;52.376;9.712;2024-03-23T06:37:09;6.60;99.90
85706;DHT22;76142;52.376;9.712;2024-03-23T06:39:37;6.70;99.90
85706;DHT22;76142;52.376;9.712;2024-03-23T06:42:03;6.70;99.90
85706;DHT22;76142;52.376;9.712;2024-03-23T06:44:29;6.70;99.90
85706;DHT22;76142;52.376;9.712;2024-03-23T06:46:58;6.70;99.90
85706;DHT22;76142;52.376;9.712;2024-03-23T06:49:24;6.70;99.90
85706;DHT22;76142;52.376;9.712;2024-03-23T06:51:50;6.70;99.90
85706;DHT22;76142;52.376;9.712;2024-03-23T06:54:17;6.80;99.90
85706;DHT22;76142;52.376;9.712;2024-03-23T06:56:44;6.80;99.90
85706;DHT22;76142;52.376;9.712;2024-03-23T06:59:09;6.90;99.90
85706;DHT22;76142;52.376;9.712;2024-03-23T07:01:35;7.00;99.90
85706;DHT22;76142;52.376;9.712;2024-03-23T07:04:01;6.90;99.90
85706;DHT22;76142;52.376;9.712;2024-03-23T07:06:27;7.00;99.90
85706;DHT22;76142;52.376;9.712;2024-03-23T07:08:52;7.00;99.90
85706;DHT22;76142;52.376;9.712;2024-03-23T07:11:22;7.00;99.90
85706;DHT22;76142;52.376;9.712;2024-03-23T07:13:51;7.10;99.90
85706;DHT22;76142;52.376;9.712;2024-03-23T07:16:17;7.10;99.90
85706;DHT22;76142;52.376;9.712;2024-03-23T07:18:43;7.10;99.90
85706;DHT22;76142;52.376;9.712;2024-03-23T07:21:09;7.20;99.90
85706;DHT22;76142;52.376;9.712;2024-03-23T07:23:35;7.10;99.90
85706;DHT22;76142;52.376;9.712;2024-03-23T07:26:02;7.20;99.90
85706;DHT22;76142;52.376;9.712;2024-03-23T07:28:29;7.10;99.90
85706;DHT22;76142;52.376;9.712;2024-03-23T07:31:11;7.20;99.90
85706;DHT22;76142;52.376;9.712;2024-03-23T07:33:41;7.30;99.90
85706;DHT22;76142;52.376;9.712;2024-03-23T07:36:07;7.20;99.90
85706;DHT22;76142;52.376;9.712;2024-03-23T07:38:33;7.30;99.90
85706;DHT22;76142;52.376;9.712;2024-03-23T07:43:34;7.40;99.90
85706;DHT22;76142;52.376;9.712;2024-03-23T07:46:00;7.40;99.90
85706;DHT22;76142;52.376;9.712;2024-03-23T07:48:26;7.50;99.90
85706;DHT22;76142;52.376;9.712;2024-03-23T07:51:17;7.40;99.90
85706;DHT22;76142;52.376;9.712;2024-03-23T07:53:44;7.40;99.90
85706;DHT22;76142;52.376;9.712;2024-03-23T07:56:11;7.40;99.90
85706;DHT22;76142;52.376;9.712;2024-03-23T07:58:38;7.50;99.90
85706;DHT22;76142;52.376;9.712;2024-03-23T08:01:08;7.50;99.90
85706;DHT22;76142;52.376;9.712;2024-03-23T08:03:38;7.50;99.90
85706;DHT22;76142;52.376;9.712;2024-03-23T08:06:08;7.50;99.90
85706;DHT22;76142;52.376;9.712;2024-03-23T08:08:34;7.60;99.90
85706;DHT22;76142;52.376;9.712;2024-03-23T08:10:59;7.60;99.90
85706;DHT22;76142;52.376;9.712;2024-03-23T08:13:26;7.60;99.90
85706;DHT22;76142;52.376;9.712;2024-03-23T08:15:51;7.70;99.90
85706;DHT22;76142;52.376;9.712;2024-03-23T08:18:17;7.60;99.90
85706;DHT22;76142;52.376;9.712;2024-03-23T08:20:43;7.60;99.90
85706;DHT22;76142;52.376;9.712;2024-03-23T08:23:09;7.70;99.90
85706;DHT22;76142;52.376;9.712;2024-03-23T08:25:35;7.70;99.90
85706;DHT22;76142;52.376;9.712;2024-03-23T08:28:01;7.70;99.90
85706;DHT22;76142;52.376;9.712;2024-03-23T08:30:27;7.70;99.90
85706;DHT22;76142;52.376;9.712;2024-03-23T08:32:53;7.80;99.90
85706;DHT22;76142;52.376;9.712;2024-03-23T08:35:19;8.10;99.90
85706;DHT22;76142;52.376;9.712;2024-03-23T08:37:45;8.40;99.90
85706;DHT22;76142;52.376;9.712;2024-03-23T08:40:11;8.70;99.90
85706;DHT22;76142;52.376;9.712;2024-03-23T08:42:37;8.50;99.90
85706;DHT22;76142;52.376;9.712;2024-03-23T08:45:02;8.60;99.90
85706;DHT22;76142;52.376;9.712;2024-03-23T08:47:28;8.60;99.90
85706;DHT22;76142;52.376;9.712;2024-03-23T08:49:54;8.90;99.90
85706;DHT22;76142;52.376;9.712;2024-03-23T08:52:20;8.90;99.90
85706;DHT22;76142;52.376;9.712;2024-03-23T08:54:48;8.90;99.90
85706;DHT22;76142;52.376;9.712;2024-03-23T08:57:14;8.90;7.10
85706;DHT22;76142;52.376;9.712;2024-03-23T08:59:39;8.90;1.00
85706;DHT22;76142;52.376;9.712;2024-03-23T09:02:05;9.00;1.00
85706;DHT22;76142;52.376;9.712;2024-03-23T09:04:31;9.00;1.00
85706;DHT22;76142;52.376;9.712;2024-03-23T09:06:57;8.70;1.00
85706;DHT22;76142;52.376;9.712;2024-03-23T09:09:24;8.70;1.00
85706;DHT22;76142;52.376;9.712;2024-03-23T09:11:50;8.70;1.00
85706;DHT22;76142;52.376;9.712;2024-03-23T09:14:15;8.80;1.00
85706;DHT22;76142;52.376;9.712;2024-03-23T09:16:41;8.90;1.00
85706;DHT22;76142;52.376;9.712;2024-03-23T09:19:07;9.20;1.00
85706;DHT22;76142;52.376;9.712;2024-03-23T09:21:33;9.20;1.00
85706;DHT22;76142;52.376;9.712;2024-03-23T09:23:58;9.40;1.00
85706;DHT22;76142;52.376;9.712;2024-03-23T09:26:24;9.60;1.00
85706;DHT22;76142;52.376;9.712;2024-03-23T09:28:49;9.60;1.00
85706;DHT22;76142;52.376;9.712;2024-03-23T09:31:15;9.60;1.00
85706;DHT22;76142;52.376;9.712;2024-03-23T09:33:41;9.50;1.00
85706;DHT22;76142;52.376;9.712;2024-03-23T09:36:08;9.30;1.00
85706;DHT22;76142;52.376;9.712;2024-03-23T09:38:34;9.10;1.00
85706;DHT22;76142;52.376;9.712;2024-03-23T09:41:00;8.90;1.00
85706;DHT22;76142;52.376;9.712;2024-03-23T09:43:26;9.00;1.00
85706;DHT22;76142;52.376;9.712;2024-03-23T09:45:52;9.70;1.00
85706;DHT22;76142;52.376;9.712;2024-03-23T09:48:18;10.30;1.00
85706;DHT22;76142;52.376;9.712;2024-03-23T09:50:45;10.90;1.00
85706;DHT22;76142;52.376;9.712;2024-03-23T09:53:12;11.30;1.00
85706;DHT22;76142;52.376;9.712;2024-03-23T09:55:39;11.30;1.00
85706;DHT22;76142;52.376;9.712;2024-03-23T09:58:05;11.70;1.00
85706;DHT22;76142;52.376;9.712;2024-03-23T10:00:32;12.10;1.00
85706;DHT22;76142;52.376;9.712;2024-03-23T10:03:01;12.20;1.00
85706;DHT22;76142;52.376;9.712;2024-03-23T10:05:30;11.60;1.00
85706;DHT22;76142;52.376;9.712;2024-03-23T10:08:17;11.00;1.00
85706;DHT22;76142;52.376;9.712;2024-03-23T10:10:45;10.60;1.00
85706;DHT22;76142;52.376;9.712;2024-03-23T10:13:11;10.40;1.00
85706;DHT22;76142;52.376;9.712;2024-03-23T10:15:38;10.10;1.00
85706;DHT22;76142;52.376;9.712;2024-03-23T10:18:18;9.90;1.00
85706;DHT22;76142;52.376;9.712;2024-03-23T10:20:50;9.80;1.00
85706;DHT22;76142;52.376;9.712;2024-03-23T10:23:16;9.90;1.00
85706;DHT22;76142;52.376;9.712;2024-03-23T10:25:43;10.10;1.00
85706;DHT22;76142;52.376;9.712;2024-03-23T10:28:08;10.10;1.00
85706;DHT22;76142;52.376;9.712;2024-03-23T10:30:37;10.20;1.00
85706;DHT22;76142;52.376;9.712;2024-03-23T10:33:10;10.30;1.00
85706;DHT22;76142;52.376;9.712;2024-03-23T10:35:37;10.40;1.00
85706;DHT22;76142;52.376;9.712;2024-03-23T10:38:07;10.30;1.00
85706;DHT22;76142;52.376;9.712;2024-03-23T10:40:36;10.40;1.00
85706;DHT22;76142;52.376;9.712;2024-03-23T10:43:03;10.40;1.00
85706;DHT22;76142;52.376;9.712;2024-03-23T10:45:30;10.30;1.00
85706;DHT22;76142;52.376;9.712;2024-03-23T10:47:55;10.10;1.00
85706;DHT22;76142;52.376;9.712;2024-03-23T10:50:22;9.20;1.00
85706;DHT22;76142;52.376;9.712;2024-03-23T10:52:49;8.90;1.00
85706;DHT22;76142;52.376;9.712;2024-03-23T10:55:17;8.60;1.00
85706;DHT22;76142;52.376;9.712;2024-03-23T10:57:52;8.50;1.00
85706;DHT22;76142;52.376;9.712;2024-03-23T11:00:19;8.10;1.00
85706;DHT22;76142;52.376;9.712;2024-03-23T11:02:47;7.90;1.00
85706;DHT22;76142;52.376;9.712;2024-03-23T11:07:52;7.70;1.00
85706;DHT22;76142;52.376;9.712;2024-03-23T11:10:29;7.80;1.00
85706;DHT22;76142;52.376;9.712;2024-03-23T11:13:21;8.10;1.00
85706;DHT22;76142;52.376;9.712;2024-03-23T11:15:44;8.10;1.00
85706;DHT22;76142;52.376;9.712;2024-03-23T11:18:11;8.20;1.00
85706;DHT22;76142;52.376;9.712;2024-03-23T11:20:44;8.00;1.00
85706;DHT22;76142;52.376;9.712;2024-03-23T11:23:27;7.80;1.00
85706;DHT22;76142;52.376;9.712;2024-03-23T11:25:53;7.60;1.00
85706;DHT22;76142;52.376;9.712;2024-03-23T11:28:19;7.50;1.00
85706;DHT22;76142;52.376;9.712;2024-03-23T11:30:44;7.50;1.00
85706;DHT22;76142;52.376;9.712;2024-03-23T11:33:10;7.60;1.00
85706;DHT22;76142;52.376;9.712;2024-03-23T11:35:39;7.80;1.00
85706;DHT22;76142;52.376;9.712;2024-03-23T11:38:13;8.00;1.00
85706;DHT22;76142;52.376;9.712;2024-03-23T11:40:44;8.20;1.00
85706;DHT22;76142;52.376;9.712;2024-03-23T11:45:38;9.00;1.00
85706;DHT22;76142;52.376;9.712;2024-03-23T11:48:06;8.80;1.00
85706;DHT22;76142;52.376;9.712;2024-03-23T11:50:33;8.70;1.00
85706;DHT22;76142;52.376;9.712;2024-03-23T11:53:21;8.40;1.00
85706;DHT22;76142;52.376;9.712;2024-03-23T11:55:52;8.20;1.00
85706;DHT22;76142;52.376;9.712;2024-03-23T11:58:20;7.90;1.00
85706;DHT22;76142;52.376;9.712;2024-03-23T12:00:57;8.10;1.00
85706;DHT22;76142;52.376;9.712;2024-03-23T12:03:23;8.00;1.00
85706;DHT22;76142;52.376;9.712;2024-03-23T12:05:55;8.00;1.00
85706;DHT22;76142;52.376;9.712;2024-03-23T12:08:33;8.00;1.00
85706;DHT22;76142;52.376;9.712;2024-03-23T12:11:12;7.90;1.00
85706;DHT22;76142;52.376;9.712;2024-03-23T12:13:39;8.10;1.00
85706;DHT22;76142;52.376;9.712;2024-03-23T12:16:16;8.10;1.00
85706;DHT22;76142;52.376;9.712;2024-03-23T12:18:44;8.10;1.00
85706;DHT22;76142;52.376;9.712;2024-03-23T12:21:10;7.90;1.00
85706;DHT22;76142;52.376;9.712;2024-03-23T12:23:38;7.90;1.00
85706;DHT22;76142;52.376;9.712;2024-03-23T12:26:04;8.20;1.00
85706;DHT22;76142;52.376;9.712;2024-03-23T12:28:30;8.40;1.00
85706;DHT22;76142;52.376;9.712;2024-03-23T12:30:56;8.50;1.00
85706;DHT22;76142;52.376;9.712;2024-03-23T12:33:23;8.50;1.00
85706;DHT22;76142;52.376;9.712;2024-03-23T12:35:52;8.50;1.00
85706;DHT22;76142;52.376;9.712;2024-03-23T12:38:18;8.50;1.00
85706;DHT22;76142;52.376;9.712;2024-03-23T12:40:47;8.50;1.00
85706;DHT22;76142;52.376;9.712;2024-03-23T12:43:14;8.40;1.00
85706;DHT22;76142;52.376;9.712;2024-03-23T12:45:39;8.30;1.00
85706;DHT22;76142;52.376;9.712;2024-03-23T12:48:06;8.20;1.00
85706;DHT22;76142;52.376;9.712;2024-03-23T12:50:32;8.20;1.00
85706;DHT22;76142;52.376;9.712;2024-03-23T12:52:58;8.20;1.00
85706;DHT22;76142;52.376;9.712;2024-03-23T12:55:24;8.30;1.00
85706;DHT22;76142;52.376;9.712;2024-03-23T12:57:51;8.10;1.00
85706;DHT22;76142;52.376;9.712;2024-03-23T13:00:17;8.00;1.00
85706;DHT22;76142;52.376;9.712;2024-03-23T13:02:44;8.00;1.00
85706;DHT22;76142;52.376;9.712;2024-03-23T13:05:10;7.90;1.00
85706;DHT22;76142;52.376;9.712;2024-03-23T13:07:36;7.80;1.00
85706;DHT22;76142;52.376;9.712;2024-03-23T13:10:03;8.00;1.00
85706;DHT22;76142;52.376;9.712;2024-03-23T13:12:29;8.00;1.00
85706;DHT22;76142;52.376;9.712;2024-03-23T13:14:55;8.10;1.00
85706;DHT22;76142;52.376;9.712;2024-03-23T13:17:20;8.20;1.00
85706;DHT22;76142;52.376;9.712;2024-03-23T13:19:46;8.70;1.00
85706;DHT22;76142;52.376;9.712;2024-03-23T13:22:12;9.00;1.00
85706;DHT22;76142;52.376;9.712;2024-03-23T13:24:39;9.50;1.00
85706;DHT22;76142;52.376;9.712;2024-03-23T13:27:08;10.00;1.00
85706;DHT22;76142;52.376;9.712;2024-03-23T13:29:36;10.60;1.00
85706;DHT22;76142;52.376;9.712;2024-03-23T13:32:03;11.30;1.00
85706;DHT22;76142;52.376;9.712;2024-03-23T13:34:29;12.10;1.00
85706;DHT22;76142;52.376;9.712;2024-03-23T13:36:55;12.70;1.00
85706;DHT22;76142;52.376;9.712;2024-03-23T13:39:23;13.10;1.00
85706;DHT22;76142;52.376;9.712;2024-03-23T13:41:50;13.40;99.90
85706;DHT22;76142;52.376;9.712;2024-03-23T13:44:15;13.80;99.90
85706;DHT22;76142;52.376;9.712;2024-03-23T13:46:42;13.60;99.90
85706;DHT22;76142;52.376;9.712;2024-03-23T13:49:29;13.00;99.90
85706;DHT22;76142;52.376;9.712;2024-03-23T13:51:57;14.00;99.90
85706;DHT22;76142;52.376;9.712;2024-03-23T13:54:26;14.30;99.90
85706;DHT22;76142;52.376;9.712;2024-03-23T13:56:53;14.40;99.90
85706;DHT22;76142;52.376;9.712;2024-03-23T13:59:20;14.20;99.90
85706;DHT22;76142;52.376;9.712;2024-03-23T14:01:46;13.80;99.90
85706;DHT22;76142;52.376;9.712;2024-03-23T14:04:13;13.20;99.90
85706;DHT22;76142;52.376;9.712;2024-03-23T14:06:39;13.20;99.90
85706;DHT22;76142;52.376;9.712;2024-03-23T14:09:05;12.80;1.00
85706;DHT22;76142;52.376;9.712;2024-03-23T14:11:35;12.20;99.90
85706;DHT22;76142;52.376;9.712;2024-03-23T14:14:03;11.70;99.90
85706;DHT22;76142;52.376;9.712;2024-03-23T14:16:32;11.00;99.90
85706;DHT22;76142;52.376;9.712;2024-03-23T14:18:58;10.70;99.90
85706;DHT22;76142;52.376;9.712;2024-03-23T14:21:24;10.50;99.90
85706;DHT22;76142;52.376;9.712;2024-03-23T14:23:50;10.40;99.90
85706;DHT22;76142;52.376;9.712;2024-03-23T14:26:16;10.30;99.90
85706;DHT22;76142;52.376;9.712;2024-03-23T14:28:42;10.20;99.90
85706;DHT22;76142;52.376;9.712;2024-03-23T14:31:08;9.90;99.90
85706;DHT22;76142;52.376;9.712;2024-03-23T14:33:37;9.60;99.90
85706;DHT22;76142;52.376;9.712;2024-03-23T14:36:03;9.40;99.90
85706;DHT22;76142;52.376;9.712;2024-03-23T14:38:30;9.00;99.90
85706;DHT22;76142;52.376;9.712;2024-03-23T14:40:59;8.60;99.90
85706;DHT22;76142;52.376;9.712;2024-03-23T14:43:25;8.10;99.90
85706;DHT22;76142;52.376;9.712;2024-03-23T14:46:07;7.90;99.90
85706;DHT22;76142;52.376;9.712;2024-03-23T14:48:33;7.70;1.00
85706;DHT22;76142;52.376;9.712;2024-03-23T14:51:00;7.70;1.00
85706;DHT22;76142;52.376;9.712;2024-03-23T14:53:26;7.80;1.00
85706;DHT22;76142;52.376;9.712;2024-03-23T14:55:56;7.80;1.00
85706;DHT22;76142;52.376;9.712;2024-03-23T14:58:22;7.80;1.00
85706;DHT22;76142;52.376;9.712;2024-03-23T15:00:51;7.80;1.00
85706;DHT22;76142;52.376;9.712;2024-03-23T15:03:19;8.00;99.90
85706;DHT22;76142;52.376;9.712;2024-03-23T15:05:53;8.00;99.90
85706;DHT22;76142;52.376;9.712;2024-03-23T15:08:19;8.40;99.90
85706;DHT22;76142;52.376;9.712;2024-03-23T15:10:45;8.60;99.90
85706;DHT22;76142;52.376;9.712;2024-03-23T15:13:11;9.00;99.90
85706;DHT22;76142;52.376;9.712;2024-03-23T15:15:40;9.00;99.90
85706;DHT22;76142;52.376;9.712;2024-03-23T15:18:12;9.40;99.90
85706;DHT22;76142;52.376;9.712;2024-03-23T15:20:41;9.70;99.90
85706;DHT22;76142;52.376;9.712;2024-03-23T15:23:10;9.90;99.90
85706;DHT22;76142;52.376;9.712;2024-03-23T15:25:36;9.90;99.90
85706;DHT22;76142;52.376;9.712;2024-03-23T15:28:01;9.70;99.90
85706;DHT22;76142;52.376;9.712;2024-03-23T15:30:28;9.50;99.90
85706;DHT22;76142;52.376;9.712;2024-03-23T15:32:53;9.20;99.90
85706;DHT22;76142;52.376;9.712;2024-03-23T15:35:19;8.90;99.90
85706;DHT22;76142;52.376;9.712;2024-03-23T15:37:48;8.60;99.90
85706;DHT22;76142;52.376;9.712;2024-03-23T15:40:14;8.70;99.90
85706;DHT22;76142;52.376;9.712;2024-03-23T15:42:39;8.60;99.90
85706;DHT22;76142;52.376;9.712;2024-03-23T15:45:08;8.60;99.90
85706;DHT22;76142;52.376;9.712;2024-03-23T15:47:37;8.50;1.00
85706;DHT22;76142;52.376;9.712;2024-03-23T15:50:03;8.20;1.00
85706;DHT22;76142;52.376;9.712;2024-03-23T15:52:34;8.00;1.00
85706;DHT22;76142;52.376;9.712;2024-03-23T15:55:01;6.80;1.00
85706;DHT22;76142;52.376;9.712;2024-03-23T15:57:26;5.50;99.90
85706;DHT22;76142;52.376;9.712;2024-03-23T15:59:52;4.80;99.90
85706;DHT22;76142;52.376;9.712;2024-03-23T16:02:18;4.40;99.90
85706;DHT22;76142;52.376;9.712;2024-03-23T16:04:43;4.50;99.90
85706;DHT22;76142;52.376;9.712;2024-03-23T16:07:11;4.60;99.90
85706;DHT22;76142;52.376;9.712;2024-03-23T16:09:36;4.70;99.90
85706;DHT22;76142;52.376;9.712;2024-03-23T16:14:29;5.00;99.90
85706;DHT22;76142;52.376;9.712;2024-03-23T16:16:55;5.00;99.90
85706;DHT22;76142;52.376;9.712;2024-03-23T16:19:20;5.10;99.90
85706;DHT22;76142;52.376;9.712;2024-03-23T16:21:47;5.00;99.90
85706;DHT22;76142;52.376;9.712;2024-03-23T16:24:13;4.80;99.90
85706;DHT22;76142;52.376;9.712;2024-03-23T16:26:39;4.80;99.90
85706;DHT22;76142;52.376;9.712;2024-03-23T16:29:05;4.80;99.90
85706;DHT22;76142;52.376;9.712;2024-03-23T16:31:31;4.80;99.90
85706;DHT22;76142;52.376;9.712;2024-03-23T16:33:56;4.70;99.90
85706;DHT22;76142;52.376;9.712;2024-03-23T16:36:22;4.80;99.90
85706;DHT22;76142;52.376;9.712;2024-03-23T16:38:48;4.80;99.90
85706;DHT22;76142;52.376;9.712;2024-03-23T16:41:14;4.90;99.90
85706;DHT22;76142;52.376;9.712;2024-03-23T16:43:44;4.90;99.90
85706;DHT22;76142;52.376;9.712;2024-03-23T16:46:14;5.00;99.90
85706;DHT22;76142;52.376;9.712;2024-03-23T16:48:42;5.00;99.90
85706;DHT22;76142;52.376;9.712;2024-03-23T16:51:10;5.00;99.90